Station: ELLX - 29/11/2020 15:20Z (il y a 34 minutes)
ELLX 291520Z 06008KT 9999 BKN015 00/M03 Q1023 NOSIG
Vent du 060º - 8 kt
Visibilité > 10 km
Ciel 75% couvert à 1500 pieds
Température: +00ºC - Point de rosée: -03ºC - QNH: 1023 hPa
Pas de changement significatif prévu dans les 2 heures qui suivent l'observation